Waterville, KS (66548)

9:00 PM CST on December 07, 2016 (GMT -0600)
N0NB | | Change Station

Elev 1318 ft 39.91 °N, 96.77 °W | Updated 4 seconds ago

Clear
Clear
18.8 °F
Feels Like 13 °F
N
4.0
Wind Variable Wind from WNW
Gusts 4.0 mph

Today
High -- | Low -- °F
--% Chance of Precip.
Yesterday
High -- | Low -- °F
Precip. -- in
Pressure 30.54 in
Visibility 10.0 miles
Clouds Clear
Windchill 13 °F
Dew Point 10 °F
Humidity 69%
Rainfall 0.00 in
Snow Depth Not available.
7:34 AM 5:02 PM
First Quarter, 58% visible
METAR KMHK 080252Z 00000KT 10SM CLR M07/M12 A3050 RMK AO2 SLP342 T10721122 51024
Pressure 30.54 in
Visibility 10.0 miles
Clouds Clear
Windchill 13 °F
Dew Point 10 °F
Humidity 69%
Rainfall 0.00 in
Snow Depth Not available.
7:34 AM 5:02 PM
First Quarter, 58% visible
METAR KMHK 080252Z 00000KT 10SM CLR M07/M12 A3050 RMK AO2 SLP342 T10721122 51024

10-Day Weather Forecast

Almanac

Astronomy

Dec. 07, 2016 Rise Set
Actual Time
Civil Twilight
Nautical Twilight
Astronomical Twilight
Moon
Length of Visible Light
Length of Day
Tomorrow will be .
, % of the Moon is Illuminated

Today's Extremes

State Highs State Lows

Community

WunderPhotos

Upload Photos

1,956,259 photos uploaded!

WunderBlog® & News

Nearby

Air Quality

  Air Quality AQ Index Pollutant
Not available.

Snow Depth

Station Depth Elevation

Earthquake Activity

City Distance Mag. Time & Date
Minimum magnitude displayed is 2.5.

Coastal Water Temperatures

Place Temperature

Stations

Nearby Weather Stations

Station Location Temp. Windchill Dew Point Humidity Wind Precip. Elev Updated Type
                   

Watches & Warnings

There are currently no watches in effect.